Time,TemperatureF,DewpointF,PressureIn,WindDirection,WindDirectionDegrees,WindSpeedMPH,WindSpeedGustMPH,Humidity,HourlyPrecipIn,Conditions,Clouds,dailyrainin,SoftwareType,DateUTC
2013-08-03 00:07:00,53.7,51.0,29.90,SSE,160,0.0,0.0,90,0.00,,,0.00,weatherlink.com 1.10,2013-08-03 07:07:00,
2013-08-03 00:22:00,53.3,51.0,29.90,SW,219,0.0,0.0,91,0.00,,,0.00,weatherlink.com 1.10,2013-08-03 07:22:00,
2013-08-03 00:37:00,53.0,51.0,29.91,SW,229,0.0,0.0,91,0.00,,,0.00,weatherlink.com 1.10,2013-08-03 07:37:00,
2013-08-03 00:52:00,52.8,51.0,29.91,SSW,207,0.0,0.0,92,0.00,,,0.00,weatherlink.com 1.10,2013-08-03 07:52:00,
2013-08-03 01:07:00,52.4,50.0,29.90,SSW,208,0.0,0.0,92,0.00,,,0.00,weatherlink.com 1.10,2013-08-03 08:07:00,
2013-08-03 01:22:00,51.6,49.0,29.90,SSW,207,0.0,0.0,92,0.00,,,0.00,weatherlink.com 1.10,2013-08-03 08:22:00,
2013-08-03 01:37:00,51.7,50.0,29.91,SSW,207,0.0,0.0,93,0.00,,,0.00,weatherlink.com 1.10,2013-08-03 08:37:00,
2013-08-03 01:52:00,51.3,49.0,29.91,SSW,209,0.0,0.0,93,0.00,,,0.00,weatherlink.com 1.10,2013-08-03 08:52:00,
2013-08-03 02:07:00,50.8,49.0,29.90,SSW,211,0.0,0.0,93,0.00,,,0.00,weatherlink.com 1.10,2013-08-03 09:07:00,
2013-08-03 02:22:00,50.8,49.0,29.91,SSW,210,0.0,0.0,94,0.00,,,0.00,weatherlink.com 1.10,2013-08-03 09:22:00,
2013-08-03 02:37:00,50.5,49.0,29.91,SSW,212,0.0,0.0,94,0.00,,,0.00,weatherlink.com 1.10,2013-08-03 09:37:00,
2013-08-03 02:52:00,50.4,49.0,29.91,South,181,0.0,0.0,94,0.00,,,0.00,weatherlink.com 1.10,2013-08-03 09:52:00,
2013-08-03 03:07:00,50.1,49.0,29.91,South,181,0.0,0.0,94,0.00,,,0.00,weatherlink.com 1.10,2013-08-03 10:07:00,
2013-08-03 03:22:00,49.9,49.0,29.91,South,183,0.0,0.0,95,0.00,,,0.00,weatherlink.com 1.10,2013-08-03 10:22:00,
2013-08-03 03:37:00,49.4,48.0,29.91,South,184,0.0,0.0,95,0.00,,,0.00,weatherlink.com 1.10,2013-08-03 10:37:00,
2013-08-03 03:52:00,49.8,49.0,29.91,South,187,0.0,0.0,95,0.00,,,0.00,weatherlink.com 1.10,2013-08-03 10:52:00,
2013-08-03 04:07:00,50.1,49.0,29.91,SSW,212,0.0,0.0,96,0.00,,,0.00,weatherlink.com 1.10,2013-08-03 11:07:00,
2013-08-03 04:22:00,50.5,49.0,29.92,SSW,210,0.0,0.0,96,0.00,,,0.00,weatherlink.com 1.10,2013-08-03 11:22:00,
2013-08-03 04:37:00,50.8,50.0,29.92,SSW,212,0.0,0.0,96,0.00,,,0.00,weatherlink.com 1.10,2013-08-03 11:37:00,
2013-08-03 04:52:00,51.0,50.0,29.92,SW,215,0.0,0.0,96,0.00,,,0.00,weatherlink.com 1.10,2013-08-03 11:52:00,
2013-08-03 05:07:00,51.3,50.0,29.92,SSW,200,0.0,0.0,96,0.00,,,0.00,weatherlink.com 1.10,2013-08-03 12:07:00,
2013-08-03 05:22:00,51.4,50.0,29.92,SW,226,0.0,3.0,96,0.00,,,0.00,weatherlink.com 1.10,2013-08-03 12:22:00,
2013-08-03 05:37:00,51.7,51.0,29.92,SW,214,0.0,0.0,97,0.00,,,0.00,weatherlink.com 1.10,2013-08-03 12:37:00,
2013-08-03 05:52:00,51.9,51.0,29.92,SW,226,0.0,0.0,97,0.00,,,0.00,weatherlink.com 1.10,2013-08-03 12:52:00,
2013-08-03 06:08:00,52.0,51.0,29.93,SW,224,0.0,0.0,97,0.00,,,0.00,weatherlink.com 1.10,2013-08-03 13:08:00,
2013-08-03 06:22:00,52.2,51.0,29.93,WSW,243,0.0,0.0,97,0.00,,,0.00,weatherlink.com 1.10,2013-08-03 13:22:00,
2013-08-03 06:38:00,52.5,52.0,29.93,SW,232,0.0,0.0,97,0.00,,,0.00,weatherlink.com 1.10,2013-08-03 13:38:00,
2013-08-03 06:53:00,52.5,52.0,29.93,SSW,207,0.0,0.0,97,0.00,,,0.00,weatherlink.com 1.10,2013-08-03 13:53:00,
2013-08-03 07:08:00,52.7,52.0,29.94,SSW,193,0.0,2.0,97,0.00,,,0.00,weatherlink.com 1.10,2013-08-03 14:08:00,
2013-08-03 07:23:00,52.9,52.0,29.94,WSW,238,0.0,0.0,97,0.00,,,0.00,weatherlink.com 1.10,2013-08-03 14:23:00,
2013-08-03 07:38:00,53.3,53.0,29.94,SSW,198,1.0,3.0,97,0.00,,,0.00,weatherlink.com 1.10,2013-08-03 14:38:00,
2013-08-03 07:53:00,53.3,53.0,29.95,SW,214,2.0,3.0,97,0.00,,,0.00,weatherlink.com 1.10,2013-08-03 14:53:00,
2013-08-03 08:08:00,53.6,53.0,29.96,WSW,249,0.0,0.0,97,0.00,,,0.00,weatherlink.com 1.10,2013-08-03 15:08:00,
2013-08-03 08:23:00,54.0,53.0,29.96,West,271,0.0,0.0,96,0.00,,,0.00,weatherlink.com 1.10,2013-08-03 15:23:00,
2013-08-03 08:38:00,54.5,53.0,29.96,SW,233,0.0,0.0,96,0.00,,,0.00,weatherlink.com 1.10,2013-08-03 15:38:00,
2013-08-03 08:53:00,55.0,54.0,29.96,SW,231,0.0,0.0,95,0.00,,,0.00,weatherlink.com 1.10,2013-08-03 15:53:00,
2013-08-03 09:08:00,55.7,54.0,29.96,SE,139,0.0,0.0,94,0.00,,,0.00,weatherlink.com 1.10,2013-08-03 16:08:00,
2013-08-03 09:23:00,56.5,54.0,29.96,SSE,160,0.0,0.0,92,0.00,,,0.00,weatherlink.com 1.10,2013-08-03 16:23:00,
2013-08-03 09:38:00,57.8,55.0,29.96,SW,236,0.0,2.0,89,0.00,,,0.00,weatherlink.com 1.10,2013-08-03 16:38:00,
2013-08-03 09:53:00,59.7,56.0,29.96,WSW,256,1.0,5.0,86,0.00,,,0.00,weatherlink.com 1.10,2013-08-03 16:53:00,
2013-08-03 10:08:00,60.4,56.0,29.96,SE,136,1.0,5.0,84,0.00,,,0.00,weatherlink.com 1.10,2013-08-03 17:08:00,
2013-08-03 10:23:00,61.6,56.0,29.96,WSW,248,1.0,4.0,81,0.00,,,0.00,weatherlink.com 1.10,2013-08-03 17:23:00,
2013-08-03 10:38:00,62.7,56.0,29.96,SW,233,1.0,4.0,80,0.00,,,0.00,weatherlink.com 1.10,2013-08-03 17:38:00,
2013-08-03 10:53:00,64.1,57.0,29.95,West,274,3.0,4.0,78,0.00,,,0.00,weatherlink.com 1.10,2013-08-03 17:53:00,
2013-08-03 11:08:00,66.5,58.0,29.95,NW,310,1.0,5.0,73,0.00,,,0.00,weatherlink.com 1.10,2013-08-03 18:08:00,
2013-08-03 11:23:00,67.7,57.0,29.95,NW,316,1.0,5.0,69,0.00,,,0.00,weatherlink.com 1.10,2013-08-03 18:23:00,
2013-08-03 11:38:00,69.5,58.0,29.95,SSW,204,3.0,6.0,66,0.00,,,0.00,weatherlink.com 1.10,2013-08-03 18:38:00,
2013-08-03 11:53:00,71.3,58.0,29.94,WNW,286,2.0,6.0,64,0.00,,,0.00,weatherlink.com 1.10,2013-08-03 18:53:00,
2013-08-03 12:09:00,72.9,59.0,29.94,SW,235,3.0,7.0,61,0.00,,,0.00,weatherlink.com 1.10,2013-08-03 19:09:00,
2013-08-03 12:23:00,74.1,59.0,29.93,NW,307,2.0,7.0,59,0.00,,,0.00,weatherlink.com 1.10,2013-08-03 19:23:00,
2013-08-03 12:39:00,74.9,58.0,29.93,South,174,2.0,9.0,56,0.00,,,0.00,weatherlink.com 1.10,2013-08-03 19:39:00,
2013-08-03 12:53:00,76.1,59.0,29.93,WNW,283,3.0,9.0,55,0.00,,,0.00,weatherlink.com 1.10,2013-08-03 19:53:00,
2013-08-03 13:08:00,77.1,59.0,29.93,South,189,4.0,11.0,53,0.00,,,0.00,weatherlink.com 1.10,2013-08-03 20:08:00,
2013-08-03 13:24:00,77.5,58.0,29.92,SSW,207,6.0,12.0,52,0.00,,,0.00,weatherlink.com 1.10,2013-08-03 20:24:00,
2013-08-03 13:39:00,77.9,58.0,29.93,West,276,7.0,9.0,51,0.00,,,0.00,weatherlink.com 1.10,2013-08-03 20:39:00,
2013-08-03 13:54:00,75.7,58.0,29.93,SW,233,10.0,12.0,54,0.00,,,0.00,weatherlink.com 1.10,2013-08-03 20:54:00,
2013-08-03 14:09:00,75.1,58.0,29.93,SSE,153,6.0,10.0,55,0.00,,,0.00,weatherlink.com 1.10,2013-08-03 21:09:00,
2013-08-03 14:24:00,74.1,57.0,29.93,South,184,9.0,11.0,56,0.00,,,0.00,weatherlink.com 1.10,2013-08-03 21:24:00,
2013-08-03 14:39:00,74.0,57.0,29.93,WSW,245,8.0,13.0,56,0.00,,,0.00,weatherlink.com 1.10,2013-08-03 21:39:00,
2013-08-03 14:54:00,72.7,56.0,29.93,SSW,198,5.0,13.0,56,0.00,,,0.00,weatherlink.com 1.10,2013-08-03 21:54:00,
2013-08-03 15:09:00,71.4,56.0,29.93,SW,232,6.0,15.0,59,0.00,,,0.00,weatherlink.com 1.10,2013-08-03 22:09:00,
2013-08-03 15:24:00,71.3,57.0,29.93,WNW,291,7.0,13.0,60,0.00,,,0.00,weatherlink.com 1.10,2013-08-03 22:24:00,
2013-08-03 15:39:00,71.2,56.0,29.93,WSW,239,7.0,11.0,59,0.00,,,0.00,weatherlink.com 1.10,2013-08-03 22:39:00,
2013-08-03 15:54:00,71.1,56.0,29.93,South,191,3.0,10.0,60,0.00,,,0.00,weatherlink.com 1.10,2013-08-03 22:54:00,
2013-08-03 16:09:00,71.3,56.0,29.92,SSW,212,3.0,10.0,59,0.00,,,0.00,weatherlink.com 1.10,2013-08-03 23:09:00,
2013-08-03 16:24:00,70.8,56.0,29.92,WSW,240,7.0,14.0,60,0.00,,,0.00,weatherlink.com 1.10,2013-08-03 23:24:00,
2013-08-03 16:39:00,71.3,57.0,29.91,SSW,207,4.0,10.0,60,0.00,,,0.00,weatherlink.com 1.10,2013-08-03 23:39:00,
2013-08-03 16:54:00,70.9,56.0,29.91,SSW,197,4.0,13.0,60,0.00,,,0.00,weatherlink.com 1.10,2013-08-03 23:54:00,
2013-08-03 17:09:00,71.0,56.0,29.91,WNW,288,4.0,11.0,60,0.00,,,0.00,weatherlink.com 1.10,2013-08-04 00:09:00,
2013-08-03 17:24:00,70.8,57.0,29.91,SW,215,6.0,11.0,61,0.00,,,0.00,weatherlink.com 1.10,2013-08-04 00:24:00,
2013-08-03 17:39:00,69.9,56.0,29.91,WSW,255,3.0,12.0,62,0.00,,,0.00,weatherlink.com 1.10,2013-08-04 00:39:00,
2013-08-03 17:54:00,68.8,56.0,29.90,SW,221,11.0,12.0,64,0.00,,,0.00,weatherlink.com 1.10,2013-08-04 00:54:00,
2013-08-03 18:09:00,66.9,55.0,29.90,South,187,5.0,11.0,66,0.00,,,0.00,weatherlink.com 1.10,2013-08-04 01:09:00,
2013-08-03 18:24:00,65.5,55.0,29.90,SW,221,4.0,11.0,69,0.00,,,0.00,weatherlink.com 1.10,2013-08-04 01:24:00,
2013-08-03 18:39:00,63.3,54.0,29.90,SSW,203,5.0,13.0,72,0.00,,,0.00,weatherlink.com 1.10,2013-08-04 01:39:00,
2013-08-03 18:54:00,61.6,54.0,29.90,SW,217,4.0,12.0,75,0.00,,,0.00,weatherlink.com 1.10,2013-08-04 01:54:00,
2013-08-03 19:09:00,58.9,53.0,29.91,SSW,210,6.0,13.0,80,0.00,,,0.00,weatherlink.com 1.10,2013-08-04 02:09:00,
2013-08-03 19:24:00,57.2,52.0,29.91,West,274,3.0,12.0,84,0.00,,,0.00,weatherlink.com 1.10,2013-08-04 02:24:00,
2013-08-03 19:39:00,56.5,52.0,29.91,WSW,243,6.0,11.0,85,0.00,,,0.00,weatherlink.com 1.10,2013-08-04 02:39:00,
2013-08-03 19:54:00,55.4,52.0,29.91,SSW,207,9.0,12.0,87,0.00,,,0.00,weatherlink.com 1.10,2013-08-04 02:54:00,
2013-08-03 20:09:00,53.9,51.0,29.92,SSW,210,3.0,8.0,89,0.00,,,0.00,weatherlink.com 1.10,2013-08-04 03:09:00,
2013-08-03 20:24:00,52.7,50.0,29.92,South,184,4.0,10.0,91,0.00,,,0.00,weatherlink.com 1.10,2013-08-04 03:24:00,
2013-08-03 20:39:00,52.0,50.0,29.92,SSW,194,6.0,9.0,93,0.00,,,0.00,weatherlink.com 1.10,2013-08-04 03:39:00,
2013-08-03 20:54:00,51.9,50.0,29.92,South,191,4.0,10.0,94,0.00,,,0.00,weatherlink.com 1.10,2013-08-04 03:54:00,
2013-08-03 21:09:00,52.1,51.0,29.93,WSW,241,3.0,9.0,95,0.00,,,0.00,weatherlink.com 1.10,2013-08-04 04:09:00,
2013-08-03 21:24:00,52.2,51.0,29.93,SW,218,3.0,11.0,95,0.00,,,0.00,weatherlink.com 1.10,2013-08-04 04:24:00,
2013-08-03 21:39:00,52.5,51.0,29.94,SW,221,5.0,7.0,95,0.00,,,0.00,weatherlink.com 1.10,2013-08-04 04:39:00,
2013-08-03 21:54:00,52.5,51.0,29.94,WSW,246,1.0,10.0,95,0.00,,,0.00,weatherlink.com 1.10,2013-08-04 04:54:00,
2013-08-03 22:09:00,52.5,51.0,29.95,SSW,197,3.0,9.0,95,0.00,,,0.00,weatherlink.com 1.10,2013-08-04 05:09:00,
2013-08-03 22:24:00,52.8,52.0,29.95,SSW,205,4.0,9.0,96,0.00,,,0.00,weatherlink.com 1.10,2013-08-04 05:24:00,
2013-08-03 22:39:00,53.0,52.0,29.95,SW,226,1.0,6.0,95,0.00,,,0.00,weatherlink.com 1.10,2013-08-04 05:39:00,
2013-08-03 22:54:00,52.8,52.0,29.95,SSW,194,2.0,8.0,96,0.00,,,0.00,weatherlink.com 1.10,2013-08-04 05:54:00,
2013-08-03 23:09:00,52.6,52.0,29.95,South,188,2.0,7.0,96,0.00,,,0.00,weatherlink.com 1.10,2013-08-04 06:09:00,
2013-08-03 23:24:00,52.4,51.0,29.95,SE,139,5.0,7.0,96,0.00,,,0.00,weatherlink.com 1.10,2013-08-04 06:24:00,
2013-08-03 23:39:00,52.0,51.0,29.95,South,186,3.0,10.0,96,0.00,,,0.00,weatherlink.com 1.10,2013-08-04 06:39:00,
2013-08-03 23:54:00,52.0,51.0,29.95,SW,222,4.0,8.0,97,0.00,,,0.00,weatherlink.com 1.10,2013-08-04 06:54:00,